• Join FlightAware (Why Join?)
  • Login
  • US Flag 
03:33PM EDT


 

Airport Tracker/Info


-or-


 

Live Flight TrackerFlight Track Log ✈ ASQ4372 ✈ 24-Jul-2014 ✈ KDCA - KEWR

Flight Track Log - Related Links

Times and Time Zones

All times are in EDT time to prevent confusion due to time zone crossing. See the ASQ4372 flight status page for this flight to view local times or setup timezone preferences in your user account.

Time Position Orientation Groundspeed Altitude Reporting Facility
EDT Latitude Longitude Course Direction KTS MPH feet Rate Location/Type
05:32PM 38.8667 -77.0500 62° Northeast 160 184 900  Level Potomac TRACON
05:33PM 38.9167 -77.1000 322° Northwest 204 235 2,600 1,860 Climbing Potomac TRACON
05:34PM 38.9500 -77.1500 311° West 251 289 4,700 1,920 Climbing Potomac TRACON
05:35PM 39.0106 -77.1364 10° North 257 296 6,600 1,920 Climbing Washington Center
05:36PM 39.0242 -77.0331 80° East 285 328 8,800 2,160 Climbing Washington Center
05:37PM 39.0395 -76.4953 62° Northeast  Level FlightAware Approximate
05:37PM 39.0447 -76.9069 78° East 300 345 11,100  Level Washington Center
05:38PM 39.0628 -76.7931 78° East 321 369 12,700 1,500 Climbing Washington Center
05:39PM 39.0817 -76.6750 78° East 332 382 14,200 1,200 Climbing Washington Center
05:40PM 39.1019 -76.5483 78° East 357 411 15,200 960 Climbing Washington Center
05:41PM 39.1250 -76.4108 78° East 382 440 16,200 840 Climbing Washington Center
05:42PM 39.1472 -76.2689 79° East 400 460 17,000 300 Climbing Washington Center
05:43PM 39.2208 -76.1458 52° Northeast 422 486 16,900 -60 Descending Washington Center
05:44PM 39.3086 -76.0425 42° Northeast 426 490 16,900  Level Washington Center
05:45PM 39.4172 -75.9192 41° Northeast 430 495 17,000  Climbing Washington Center
05:46PM 39.5047 -75.8147 43° Northeast 430 495 17,000  Level Washington Center
05:47PM 39.5931 -75.7092 43° Northeast 432 497 17,000  Level Washington Center
05:48PM 39.6808 -75.6025 43° Northeast 430 495 17,000 -60 Level Washington Center
05:49PM 39.7761 -75.4883 43° Northeast 430 495 16,900 -60 Descending New York Center
05:50PM 39.8625 -75.3844 43° Northeast 429 494 16,900 -720 Level New York Center
05:51PM 39.9525 -75.2756 43° Northeast 427 491 15,500 -1,860 Descending New York Center
05:52PM 40.0336 -75.1769 43° Northeast 398 458 13,200 -2,040 Descending New York Center
05:53PM 40.1161 -75.0775 43° Northeast 371 427 11,200 -1,620 Descending New York Center
05:54PM 40.1819 -74.9961 43° Northeast 328 377 9,800 -1,500 Descending New York Center
05:56PM 40.2469 -74.9158 43° Northeast 295 339 8,200 -900 Descending New York Center
05:57PM 40.3006 -74.8419 46° Northeast 280 322 8,000 -660 Descending New York Center
05:58PM 40.3667 -74.7500 47° Northeast 275 316 6,800 -960 Descending New York TRACON
05:59PM 40.3914 -74.6836 64° Northeast 256 295 6,000 -960 Descending New York Center
06:00PM 40.3764 -74.5989 103° East 228 262 5,000 -840 Descending New York Center
06:01PM 40.3500 -74.5167 113° Southeast 230 265 4,300 -840 Descending New York TRACON
06:02PM 40.3667 -74.4333 75° East 234 269 3,400 -660 Descending New York TRACON
06:03PM 40.3833 -74.3500 75° East 226 260 3,000 -240 Descending New York TRACON
06:04PM 40.4333 -74.3167 27° Northeast 220 253 3,000  Level New York TRACON
06:05PM 40.5000 -74.2833 21° North 228 262 3,000 -120 Level New York TRACON
06:06PM 40.5500 -74.2500 27° Northeast 159 183 2,800 -600 Descending New York TRACON
06:08PM 40.6167 -74.2167 21° North 148 170 1,300 -780 Descending New York TRACON
06:09PM 40.6500 -74.1833 37° Northeast 131 151 600 -720 Descending New York TRACON